createdAt,value
2019-03-16T00:00:05.091Z,85.55
2019-03-16T00:02:33.658Z,85.58
2019-03-16T00:05:02.300Z,86.13
2019-03-16T00:07:33.184Z,84.36
2019-03-16T00:10:01.166Z,84.72
2019-03-16T00:12:29.840Z,86.08
2019-03-16T00:14:58.394Z,86.24
2019-03-16T00:17:26.995Z,86.38
2019-03-16T00:19:55.589Z,86.32
2019-03-16T00:22:24.361Z,85.92
2019-03-16T00:24:52.873Z,85.40
2019-03-16T00:27:21.510Z,85.70
2019-03-16T00:29:50.146Z,85.68
2019-03-16T00:32:18.691Z,87.36
2019-03-16T00:34:47.186Z,86.05
2019-03-16T00:37:15.854Z,86.92
2019-03-16T00:39:45.134Z,87.18
2019-03-16T00:42:13.840Z,86.04
2019-03-16T00:44:42.434Z,88.22
2019-03-16T00:47:10.971Z,88.44
2019-03-16T00:49:39.602Z,87.74
2019-03-16T00:52:08.190Z,88.45
2019-03-16T00:54:36.769Z,88.78
2019-03-16T00:57:06.381Z,87.32
2019-03-16T00:59:34.963Z,88.08
2019-03-16T01:02:03.524Z,89.18
2019-03-16T01:04:32.131Z,88.80
2019-03-16T01:07:00.719Z,89.61
2019-03-16T01:09:29.295Z,88.99
2019-03-16T01:11:57.877Z,89.09
2019-03-16T01:14:26.459Z,90.21
2019-03-16T01:16:55.037Z,90.63
2019-03-16T01:19:23.621Z,89.77
2019-03-16T01:21:52.211Z,90.64
2019-03-16T01:24:20.796Z,91.41
2019-03-16T01:26:49.381Z,92.61
2019-03-16T01:29:17.965Z,91.77
2019-03-16T01:31:46.551Z,92.64
2019-03-16T01:34:15.227Z,92.21
2019-03-16T01:36:43.804Z,92.98
2019-03-16T01:39:12.779Z,92.86
2019-03-16T01:41:41.271Z,93.73
2019-03-16T01:44:09.866Z,94.17
2019-03-16T01:46:38.444Z,93.75
2019-03-16T01:49:07.450Z,93.77
2019-03-16T01:51:36.012Z,93.52
2019-03-16T01:54:04.806Z,93.81
2019-03-16T01:56:33.302Z,93.11
2019-03-16T01:59:01.886Z,93.86
2019-03-16T02:01:30.465Z,93.78
2019-03-16T02:03:59.045Z,93.36
2019-03-16T02:06:27.613Z,93.51
2019-03-16T02:08:56.212Z,93.99
2019-03-16T02:11:24.802Z,93.79
2019-03-16T02:13:53.686Z,93.58
2019-03-16T02:16:22.260Z,93.55
2019-03-16T02:18:50.856Z,94.56
2019-03-16T02:21:19.416Z,93.83
2019-03-16T02:23:48.123Z,93.60
2019-03-16T02:26:16.684Z,94.04
2019-03-16T02:28:45.302Z,93.62
2019-03-16T02:31:13.767Z,94.79
2019-03-16T02:33:42.371Z,94.45
2019-03-16T02:36:10.917Z,93.84
2019-03-16T02:38:39.528Z,94.93
2019-03-16T02:41:08.123Z,94.92
2019-03-16T02:43:36.675Z,94.77
2019-03-16T02:46:05.272Z,95.26
2019-03-16T02:48:33.857Z,94.78
2019-03-16T02:51:02.454Z,95.51
2019-03-16T02:53:31.002Z,96.00
2019-03-16T02:55:59.588Z,96.27
2019-03-16T02:58:28.209Z,95.50
2019-03-16T03:00:56.761Z,95.67
2019-03-16T03:03:29.863Z,97.19
2019-03-16T03:05:55.653Z,96.56
2019-03-16T03:08:24.293Z,97.23
2019-03-16T03:10:52.820Z,98.11
2019-03-16T03:13:21.422Z,97.83
2019-03-16T03:15:50.060Z,97.96
2019-03-16T03:18:18.708Z,97.74
2019-03-16T03:20:47.243Z,97.51
2019-03-16T03:23:16.245Z,97.17
2019-03-16T03:25:44.772Z,98.75
2019-03-16T03:28:13.898Z,99.27
2019-03-16T03:30:42.537Z,100.00
2019-03-16T03:33:11.142Z,99.76
2019-03-16T03:35:39.717Z,100.00
2019-03-16T03:38:08.307Z,100.00
2019-03-16T03:40:36.870Z,100.00
2019-03-16T03:43:05.438Z,100.00
2019-03-16T03:45:34.255Z,100.00
2019-03-16T03:48:02.821Z,100.00
2019-03-16T03:50:31.530Z,100.00
2019-03-16T03:53:00.055Z,100.00
2019-03-16T03:55:28.582Z,100.00
2019-03-16T03:57:57.123Z,100.00
2019-03-16T04:00:25.647Z,100.00
2019-03-16T04:02:54.611Z,100.00
2019-03-16T04:05:23.134Z,100.00
2019-03-16T04:07:51.746Z,100.00
2019-03-16T04:10:20.347Z,100.00
2019-03-16T04:12:49.041Z,100.00
2019-03-16T04:15:17.573Z,100.00
2019-03-16T04:17:46.228Z,100.00
2019-03-16T04:20:15.347Z,100.00
2019-03-16T04:22:43.940Z,100.00
2019-03-16T04:25:12.661Z,100.00
2019-03-16T04:27:41.294Z,100.00
2019-03-16T04:30:11.694Z,100.00
2019-03-16T04:32:40.266Z,100.00
2019-03-16T04:35:09.365Z,100.00
2019-03-16T04:37:37.982Z,100.00
2019-03-16T04:40:08.902Z,100.00
2019-03-16T04:42:37.510Z,100.00
2019-03-16T04:45:12.867Z,100.00
2019-03-16T04:47:41.390Z,100.00
2019-03-16T04:50:12.156Z,100.00
2019-03-16T04:52:40.688Z,100.00
2019-03-16T04:55:11.958Z,100.00
2019-03-16T04:57:40.485Z,100.00
2019-03-16T05:00:13.754Z,100.00
2019-03-16T05:02:42.332Z,100.00
2019-03-16T05:05:10.968Z,100.00
2019-03-16T05:07:39.571Z,100.00
2019-03-16T05:10:11.836Z,100.00
2019-03-16T05:12:40.345Z,100.00
2019-03-16T05:15:09.975Z,100.00
2019-03-16T05:17:38.554Z,100.00
2019-03-16T05:20:11.921Z,100.00
2019-03-16T05:22:40.538Z,100.00
2019-03-16T05:25:10.739Z,100.00
2019-03-16T05:27:39.340Z,100.00
2019-03-16T05:30:10.936Z,100.00
2019-03-16T05:32:39.461Z,100.00
2019-03-16T05:35:08.516Z,100.00
2019-03-16T05:37:37.386Z,100.00
2019-03-16T05:40:08.772Z,100.00
2019-03-16T05:42:37.599Z,100.00
2019-03-16T05:45:08.022Z,100.00
2019-03-16T05:47:36.626Z,100.00
2019-03-16T05:50:10.342Z,100.00
2019-03-16T05:52:38.908Z,100.00
2019-03-16T05:55:07.590Z,100.00
2019-03-16T05:57:36.162Z,100.00
2019-03-16T06:00:12.774Z,100.00
2019-03-16T06:02:41.632Z,100.00
2019-03-16T06:05:11.451Z,100.00
2019-03-16T06:07:40.179Z,100.00
2019-03-16T06:10:11.188Z,100.00
2019-03-16T06:12:39.870Z,100.00
2019-03-16T06:15:10.115Z,100.00
2019-03-16T06:17:38.678Z,100.00
2019-03-16T06:20:10.358Z,100.00
2019-03-16T06:22:38.953Z,100.00
2019-03-16T06:25:09.320Z,100.00
2019-03-16T06:27:37.875Z,100.00
2019-03-16T06:30:09.700Z,99.89
2019-03-16T06:32:38.319Z,100.00
2019-03-16T06:35:07.752Z,100.00
2019-03-16T06:37:36.446Z,99.26
2019-03-16T06:40:06.563Z,98.73
2019-03-16T06:42:35.136Z,98.16
2019-03-16T06:45:04.739Z,97.50
2019-03-16T06:47:34.563Z,97.96
2019-03-16T06:50:04.616Z,97.20
2019-03-16T06:52:33.135Z,97.18
2019-03-16T06:55:01.739Z,96.67
2019-03-16T06:57:30.353Z,95.71
2019-03-16T06:59:58.902Z,94.92
2019-03-16T07:02:27.847Z,94.37
2019-03-16T07:04:56.359Z,95.14
2019-03-16T07:07:27.062Z,95.11
2019-03-16T07:09:55.537Z,93.96
2019-03-16T07:12:24.457Z,94.96
2019-03-16T07:14:53.066Z,94.79
2019-03-16T07:17:21.904Z,93.66
2019-03-16T07:19:50.435Z,93.10
2019-03-16T07:22:19.013Z,94.14
2019-03-16T07:24:47.609Z,94.22
2019-03-16T07:27:25.660Z,93.89
2019-03-16T07:29:46.505Z,93.20
2019-03-16T07:32:18.261Z,92.75
2019-03-16T07:34:46.842Z,93.14
2019-03-16T07:37:15.427Z,93.62
2019-03-16T07:39:43.938Z,93.45
2019-03-16T07:42:12.490Z,92.36
2019-03-16T07:44:41.007Z,93.14
2019-03-16T07:47:09.582Z,92.89
2019-03-16T07:49:39.084Z,91.87
2019-03-16T07:52:07.755Z,92.10
2019-03-16T07:54:37.297Z,90.48
2019-03-16T07:57:05.839Z,91.47
2019-03-16T07:59:36.955Z,90.98
2019-03-16T08:02:04.747Z,90.88
2019-03-16T08:04:34.357Z,90.42
2019-03-16T08:07:03.244Z,90.13
2019-03-16T08:09:32.175Z,89.82
2019-03-16T08:12:00.814Z,89.65
2019-03-16T08:14:29.330Z,87.92
2019-03-16T08:16:57.979Z,88.40
2019-03-16T08:19:26.599Z,88.58
2019-03-16T08:21:55.114Z,87.72
2019-03-16T08:24:25.679Z,87.75
2019-03-16T08:26:54.301Z,88.56
2019-03-16T08:29:22.791Z,86.76
2019-03-16T08:31:51.533Z,88.23
2019-03-16T08:34:20.139Z,87.53
2019-03-16T08:36:48.713Z,85.68
2019-03-16T08:39:17.282Z,85.74
2019-03-16T08:41:45.846Z,86.59
2019-03-16T08:44:14.441Z,86.74
2019-03-16T08:46:43.005Z,85.59
2019-03-16T08:49:11.611Z,84.13
2019-03-16T08:51:40.395Z,84.59
2019-03-16T08:54:08.983Z,84.25
2019-03-16T08:56:37.599Z,83.92
2019-03-16T08:59:06.462Z,82.67
2019-03-16T09:01:35.055Z,81.05
2019-03-16T09:04:03.927Z,79.46
2019-03-16T09:06:32.525Z,79.37
2019-03-16T09:09:01.090Z,78.96
2019-03-16T09:11:30.299Z,80.69
2019-03-16T09:13:58.882Z,80.42
2019-03-16T09:16:27.476Z,79.77
2019-03-16T09:18:56.052Z,81.29
2019-03-16T09:21:24.638Z,79.32
2019-03-16T09:23:53.215Z,81.12
2019-03-16T09:26:21.806Z,79.93
2019-03-16T09:28:59.678Z,79.51
2019-03-16T09:31:20.577Z,77.60
2019-03-16T09:33:49.058Z,78.23
2019-03-16T09:36:17.636Z,80.52
2019-03-16T09:38:46.171Z,79.09
2019-03-16T09:41:14.804Z,78.15
2019-03-16T09:43:43.411Z,79.42
2019-03-16T09:46:11.974Z,79.44
2019-03-16T09:48:40.453Z,78.41
2019-03-16T09:51:09.043Z,78.42
2019-03-16T09:53:37.591Z,78.16
2019-03-16T09:56:06.159Z,78.95
2019-03-16T09:58:35.407Z,77.08
2019-03-16T10:01:03.953Z,78.38
2019-03-16T10:03:32.463Z,73.56
2019-03-16T10:06:01.053Z,74.60
2019-03-16T10:08:29.558Z,74.90
2019-03-16T10:10:58.134Z,76.05
2019-03-16T10:13:26.659Z,75.18
2019-03-16T10:15:55.218Z,76.29
2019-03-16T10:18:23.731Z,75.48
2019-03-16T10:20:52.255Z,76.52
2019-03-16T10:23:20.805Z,75.49
2019-03-16T10:25:49.758Z,74.49
2019-03-16T10:28:18.428Z,74.35
2019-03-16T10:30:46.980Z,72.80
2019-03-16T10:33:15.558Z,72.94
2019-03-16T10:35:44.117Z,73.60
2019-03-16T10:38:12.647Z,75.00
2019-03-16T10:40:41.155Z,75.52
2019-03-16T10:43:10.177Z,75.56
2019-03-16T10:45:40.899Z,75.44
2019-03-16T10:48:14.829Z,74.67
2019-03-16T10:50:44.434Z,75.75
2019-03-16T10:53:13.087Z,74.09
2019-03-16T10:55:42.075Z,74.96
2019-03-16T10:58:10.594Z,74.61
2019-03-16T11:00:39.093Z,73.80
2019-03-16T11:03:07.656Z,74.34
2019-03-16T11:05:37.144Z,74.36
2019-03-16T11:08:06.065Z,72.98
2019-03-16T11:10:34.640Z,71.56
2019-03-16T11:13:03.265Z,70.89
2019-03-16T11:15:31.837Z,70.22
2019-03-16T11:18:00.430Z,72.49
2019-03-16T11:20:28.904Z,72.91
2019-03-16T11:22:57.516Z,72.75
2019-03-16T11:25:26.074Z,71.99
2019-03-16T11:27:56.253Z,72.82
2019-03-16T11:30:24.799Z,73.49
2019-03-16T11:32:54.863Z,74.95
2019-03-16T11:35:24.231Z,78.66
2019-03-16T11:37:54.260Z,78.57
2019-03-16T11:40:22.932Z,79.63
2019-03-16T11:42:52.118Z,84.06
2019-03-16T11:45:20.787Z,92.20
2019-03-16T11:47:49.396Z,96.09
2019-03-16T11:50:17.992Z,100.00
2019-03-16T11:52:46.594Z,100.00
2019-03-16T11:55:17.105Z,100.00
2019-03-16T11:57:45.742Z,100.00
2019-03-16T12:00:15.687Z,100.00
2019-03-16T12:02:44.303Z,100.00
2019-03-16T12:05:12.922Z,100.00
2019-03-16T12:07:41.471Z,100.00
2019-03-16T12:10:12.524Z,100.00
2019-03-16T12:12:41.066Z,100.00
2019-03-16T12:15:11.936Z,100.00
2019-03-16T12:17:40.600Z,100.00
2019-03-16T12:20:13.743Z,100.00
2019-03-16T12:22:42.443Z,100.00
2019-03-16T12:25:11.295Z,100.00
2019-03-16T12:27:39.833Z,100.00
2019-03-16T12:30:11.004Z,100.00
2019-03-16T12:32:40.342Z,100.00
2019-03-16T12:35:09.244Z,100.00
2019-03-16T12:37:37.823Z,100.00
2019-03-16T12:40:09.720Z,100.00
2019-03-16T12:42:38.297Z,100.00
2019-03-16T12:45:14.636Z,100.00
2019-03-16T12:47:43.244Z,100.00
2019-03-16T12:50:12.268Z,100.00
2019-03-16T12:52:41.350Z,100.00
2019-03-16T12:55:11.240Z,100.00
2019-03-16T12:57:39.949Z,100.00
2019-03-16T13:00:16.055Z,100.00
2019-03-16T13:02:46.333Z,100.00
2019-03-16T13:05:14.903Z,100.00
2019-03-16T13:07:43.859Z,100.00
2019-03-16T13:10:13.968Z,100.00
2019-03-16T13:12:42.698Z,100.00
2019-03-16T13:15:11.266Z,100.00
2019-03-16T13:17:39.790Z,100.00
2019-03-16T13:20:13.113Z,100.00
2019-03-16T13:22:41.721Z,100.00
2019-03-16T13:25:11.864Z,100.00
2019-03-16T13:27:40.726Z,100.00
2019-03-16T13:30:14.663Z,100.00
2019-03-16T13:32:43.216Z,100.00
2019-03-16T13:35:11.945Z,100.00
2019-03-16T13:37:41.697Z,100.00
2019-03-16T13:40:18.007Z,100.00
2019-03-16T13:42:46.895Z,100.00
2019-03-16T13:45:16.285Z,100.00
2019-03-16T13:47:44.833Z,100.00
2019-03-16T13:50:17.920Z,100.00
2019-03-16T13:52:47.018Z,100.00
2019-03-16T13:55:16.034Z,100.00
2019-03-16T13:57:44.570Z,100.00
2019-03-16T14:00:15.531Z,100.00
2019-03-16T14:02:44.193Z,100.00
2019-03-16T14:05:12.699Z,100.00
2019-03-16T14:07:42.019Z,100.00
2019-03-16T14:10:25.707Z,100.00
2019-03-16T14:12:56.966Z,100.00
2019-03-16T14:15:25.476Z,100.00
2019-03-16T14:17:54.025Z,100.00
2019-03-16T14:20:22.809Z,100.00
2019-03-16T14:22:51.468Z,100.00
2019-03-16T14:25:20.000Z,100.00
2019-03-16T14:27:48.552Z,100.00
2019-03-16T14:30:39.487Z,100.00
2019-03-16T14:32:51.259Z,100.00
2019-03-16T14:35:19.763Z,100.00
2019-03-16T14:37:48.686Z,100.00
2019-03-16T14:40:17.326Z,100.00
2019-03-16T14:42:45.921Z,100.00
2019-03-16T14:45:15.570Z,100.00
2019-03-16T14:47:45.085Z,100.00
2019-03-16T14:50:18.716Z,100.00
2019-03-16T14:52:47.370Z,100.00
2019-03-16T14:55:16.536Z,100.00
2019-03-16T14:57:45.141Z,100.00
2019-03-16T15:00:15.574Z,100.00
2019-03-16T15:02:46.212Z,100.00
2019-03-16T15:05:15.265Z,100.00
2019-03-16T15:07:44.258Z,100.00
2019-03-16T15:10:16.565Z,100.00
2019-03-16T15:12:45.289Z,100.00
2019-03-16T15:15:17.570Z,100.00
2019-03-16T15:17:46.266Z,100.00
2019-03-16T15:20:15.019Z,100.00
2019-03-16T15:22:43.954Z,100.00
2019-03-16T15:25:13.580Z,100.00
2019-03-16T15:27:42.577Z,100.00
2019-03-16T15:30:18.717Z,100.00
2019-03-16T15:32:47.526Z,100.00
2019-03-16T15:35:16.534Z,100.00
2019-03-16T15:37:46.543Z,100.00
2019-03-16T15:40:16.005Z,100.00
2019-03-16T15:42:44.943Z,100.00
2019-03-16T15:45:25.550Z,100.00
2019-03-16T15:47:54.248Z,100.00
2019-03-16T15:50:25.084Z,100.00
2019-03-16T15:52:54.072Z,100.00
2019-03-16T15:55:22.713Z,100.00
2019-03-16T15:57:51.860Z,100.00
2019-03-16T16:00:21.043Z,100.00
2019-03-16T16:02:50.469Z,100.00
2019-03-16T16:05:20.099Z,100.00
2019-03-16T16:07:48.691Z,100.00
2019-03-16T16:10:21.016Z,100.00
2019-03-16T16:12:50.340Z,100.00
2019-03-16T16:15:18.823Z,100.00
2019-03-16T16:17:47.395Z,100.00
2019-03-16T16:20:17.427Z,100.00
2019-03-16T16:22:46.019Z,100.00
2019-03-16T16:25:14.954Z,100.00
2019-03-16T16:27:43.563Z,100.00
2019-03-16T16:30:16.313Z,100.00
2019-03-16T16:32:44.955Z,100.00
2019-03-16T16:35:15.153Z,100.00
2019-03-16T16:37:43.837Z,100.00
2019-03-16T16:40:19.650Z,100.00
2019-03-16T16:42:48.334Z,100.00
2019-03-16T16:45:18.313Z,100.00
2019-03-16T16:47:46.849Z,100.00
2019-03-16T16:50:17.960Z,100.00
2019-03-16T16:52:46.926Z,100.00
2019-03-16T16:55:15.444Z,100.00
2019-03-16T16:57:43.988Z,100.00
2019-03-16T17:00:17.931Z,100.00
2019-03-16T17:02:46.840Z,100.00
2019-03-16T17:05:15.411Z,100.00
2019-03-16T17:07:44.159Z,100.00
2019-03-16T17:10:14.693Z,100.00
2019-03-16T17:12:44.143Z,100.00
2019-03-16T17:15:21.480Z,100.00
2019-03-16T17:17:50.669Z,100.00
2019-03-16T17:20:19.514Z,100.00
2019-03-16T17:22:48.123Z,100.00
2019-03-16T17:25:16.639Z,100.00
2019-03-16T17:27:45.401Z,100.00
2019-03-16T17:30:30.394Z,100.00
2019-03-16T17:32:58.966Z,100.00
2019-03-16T17:35:27.662Z,100.00
2019-03-16T17:37:56.284Z,100.00
2019-03-16T17:40:24.880Z,100.00
2019-03-16T17:42:53.502Z,100.00
2019-03-16T17:45:22.419Z,100.00
2019-03-16T17:47:51.019Z,100.00
2019-03-16T17:50:19.604Z,100.00
2019-03-16T17:52:48.185Z,100.00
2019-03-16T17:55:17.926Z,100.00
2019-03-16T17:57:46.973Z,100.00
2019-03-16T18:00:20.502Z,100.00
2019-03-16T18:02:52.039Z,100.00
2019-03-16T18:05:19.398Z,100.00
2019-03-16T18:07:48.284Z,100.00
2019-03-16T18:10:17.125Z,100.00
2019-03-16T18:12:46.178Z,100.00
2019-03-16T18:15:17.801Z,100.00
2019-03-16T18:17:46.468Z,100.00
2019-03-16T18:20:18.138Z,100.00
2019-03-16T18:22:48.096Z,100.00
2019-03-16T18:25:17.172Z,100.00
2019-03-16T18:27:45.760Z,100.00
2019-03-16T18:30:19.069Z,100.00
2019-03-16T18:32:47.998Z,100.00
2019-03-16T18:35:16.762Z,100.00
2019-03-16T18:37:45.508Z,100.00
2019-03-16T18:40:15.293Z,100.00
2019-03-16T18:42:44.047Z,100.00
2019-03-16T18:45:24.288Z,100.00
2019-03-16T18:47:53.058Z,100.00
2019-03-16T18:50:21.639Z,100.00
2019-03-16T18:52:50.219Z,100.00
2019-03-16T18:55:18.874Z,100.00
2019-03-16T18:57:47.792Z,100.00
2019-03-16T19:00:19.637Z,100.00
2019-03-16T19:02:48.248Z,100.00
2019-03-16T19:05:17.247Z,100.00
2019-03-16T19:07:48.097Z,100.00
2019-03-16T19:10:17.503Z,100.00
2019-03-16T19:12:46.559Z,100.00
2019-03-16T19:15:19.101Z,100.00
2019-03-16T19:17:58.249Z,100.00
2019-03-16T19:20:18.458Z,100.00
2019-03-16T19:22:47.530Z,100.00
2019-03-16T19:25:19.375Z,100.00
2019-03-16T19:27:48.008Z,100.00
2019-03-16T19:30:17.636Z,100.00
2019-03-16T19:32:46.140Z,100.00
2019-03-16T19:35:17.220Z,100.00
2019-03-16T19:37:46.620Z,100.00
2019-03-16T19:40:17.834Z,100.00
2019-03-16T19:42:47.198Z,100.00
2019-03-16T19:45:16.057Z,100.00
2019-03-16T19:47:44.649Z,100.00
2019-03-16T19:50:16.463Z,100.00
2019-03-16T19:52:45.091Z,100.00
2019-03-16T19:55:14.822Z,100.00
2019-03-16T19:57:43.521Z,100.00
2019-03-16T20:00:15.148Z,100.00
2019-03-16T20:02:50.082Z,100.00
2019-03-16T20:05:14.369Z,100.00
2019-03-16T20:07:42.890Z,100.00
2019-03-16T20:10:19.189Z,100.00
2019-03-16T20:12:48.407Z,100.00
2019-03-16T20:15:17.796Z,100.00
2019-03-16T20:17:46.406Z,100.00
2019-03-16T20:20:16.144Z,100.00
2019-03-16T20:22:44.739Z,100.00
2019-03-16T20:25:13.857Z,100.00
2019-03-16T20:27:42.507Z,100.00
2019-03-16T20:30:15.856Z,100.00
2019-03-16T20:32:44.389Z,100.00
2019-03-16T20:35:13.379Z,100.00
2019-03-16T20:37:42.086Z,100.00
2019-03-16T20:40:15.037Z,100.00
2019-03-16T20:42:43.663Z,100.00
2019-03-16T20:45:12.788Z,100.00
2019-03-16T20:47:41.558Z,100.00
2019-03-16T20:50:16.414Z,100.00
2019-03-16T20:52:45.015Z,100.00
2019-03-16T20:55:14.004Z,100.00
2019-03-16T20:57:42.755Z,100.00
2019-03-16T21:00:14.025Z,100.00
2019-03-16T21:02:42.533Z,100.00
2019-03-16T21:05:11.526Z,100.00
2019-03-16T21:07:40.065Z,100.00
2019-03-16T21:10:10.148Z,100.00
2019-03-16T21:12:38.842Z,100.00
2019-03-16T21:15:10.683Z,100.00
2019-03-16T21:17:39.209Z,100.00
2019-03-16T21:20:16.541Z,100.00
2019-03-16T21:22:45.217Z,100.00
2019-03-16T21:25:14.961Z,100.00
2019-03-16T21:27:43.547Z,100.00
2019-03-16T21:30:21.590Z,100.00
2019-03-16T21:32:50.132Z,100.00
2019-03-16T21:35:18.683Z,100.00
2019-03-16T21:37:47.450Z,100.00
2019-03-16T21:40:16.108Z,100.00
2019-03-16T21:42:45.030Z,100.00
2019-03-16T21:45:14.289Z,100.00
2019-03-16T21:47:42.853Z,100.00
2019-03-16T21:50:15.919Z,100.00
2019-03-16T21:52:45.121Z,100.00
2019-03-16T21:55:14.895Z,100.00
2019-03-16T21:57:46.297Z,100.00
2019-03-16T22:00:18.616Z,100.00
2019-03-16T22:02:47.264Z,100.00
2019-03-16T22:05:15.788Z,100.00
2019-03-16T22:07:44.369Z,100.00
2019-03-16T22:10:13.972Z,100.00
2019-03-16T22:12:42.525Z,100.00
2019-03-16T22:15:13.400Z,100.00
2019-03-16T22:17:42.002Z,100.00
2019-03-16T22:20:12.817Z,100.00
2019-03-16T22:22:41.413Z,100.00
2019-03-16T22:25:10.805Z,100.00
2019-03-16T22:27:39.414Z,100.00
2019-03-16T22:30:18.342Z,100.00
2019-03-16T22:32:47.669Z,100.00
2019-03-16T22:35:16.222Z,100.00
2019-03-16T22:37:44.762Z,100.00
2019-03-16T22:40:14.268Z,100.00
2019-03-16T22:42:43.371Z,100.00
2019-03-16T22:45:12.935Z,100.00
2019-03-16T22:47:41.522Z,100.00
2019-03-16T22:50:13.065Z,100.00
2019-03-16T22:52:42.133Z,100.00
2019-03-16T22:55:10.637Z,100.00
2019-03-16T22:57:39.199Z,100.00
2019-03-16T23:00:18.328Z,100.00
2019-03-16T23:02:46.841Z,100.00
2019-03-16T23:05:15.351Z,100.00
2019-03-16T23:07:43.914Z,100.00
2019-03-16T23:10:13.068Z,100.00
2019-03-16T23:12:41.708Z,100.00
2019-03-16T23:15:11.162Z,100.00
2019-03-16T23:17:39.728Z,100.00
2019-03-16T23:20:09.404Z,100.00
2019-03-16T23:22:38.061Z,100.00
2019-03-16T23:25:10.625Z,100.00
2019-03-16T23:27:39.472Z,100.00
2019-03-16T23:30:10.511Z,100.00
2019-03-16T23:32:39.016Z,100.00
2019-03-16T23:35:10.898Z,100.00
2019-03-16T23:37:39.525Z,100.00
2019-03-16T23:40:10.676Z,100.00
2019-03-16T23:42:39.258Z,100.00
2019-03-16T23:45:12.783Z,100.00
2019-03-16T23:47:41.720Z,100.00
2019-03-16T23:50:11.897Z,100.00
2019-03-16T23:52:40.535Z,100.00
2019-03-16T23:55:10.204Z,100.00
2019-03-16T23:57:39.887Z,100.00
